createdAt,value
2023-06-01T00:00:40.574Z,1001.61
2023-06-01T00:01:41.018Z,1001.61
2023-06-01T00:02:40.996Z,1001.61
2023-06-01T00:03:40.568Z,1001.62
2023-06-01T00:04:40.626Z,1001.63
2023-06-01T00:05:40.509Z,1001.62
2023-06-01T00:06:41.338Z,1001.63
2023-06-01T00:07:40.501Z,1001.64
2023-06-01T00:08:40.500Z,1001.64
2023-06-01T00:09:40.480Z,1001.64
2023-06-01T00:10:40.469Z,1001.64
2023-06-01T00:11:40.799Z,1001.64
2023-06-01T00:12:40.462Z,1001.64
2023-06-01T00:13:40.434Z,1001.64
2023-06-01T00:14:40.441Z,1001.65
2023-06-01T00:15:40.799Z,1001.64
2023-06-01T00:16:40.461Z,1001.64
2023-06-01T00:17:40.410Z,1001.63
2023-06-01T00:18:40.405Z,1001.61
2023-06-01T00:19:40.390Z,1001.60
2023-06-01T00:20:40.408Z,1001.60
2023-06-01T00:21:40.451Z,1001.59
2023-06-01T00:22:40.439Z,1001.58
2023-06-01T00:23:40.353Z,1001.57
2023-06-01T00:24:40.335Z,1001.56
2023-06-01T00:25:40.650Z,1001.55
2023-06-01T00:26:40.320Z,1001.55
2023-06-01T00:27:40.323Z,1001.54
2023-06-01T00:28:40.304Z,1001.54
2023-06-01T00:29:40.317Z,1001.54
2023-06-01T00:30:40.600Z,1001.53
2023-06-01T00:31:40.361Z,1001.52
2023-06-01T00:32:40.303Z,1001.51
2023-06-01T00:33:40.250Z,1001.50
2023-06-01T00:34:40.575Z,1001.50
2023-06-01T00:35:40.254Z,1001.49
2023-06-01T00:36:40.228Z,1001.49
2023-06-01T00:37:40.215Z,1001.48
2023-06-01T00:38:40.220Z,1001.48
2023-06-01T00:39:40.717Z,1001.47
2023-06-01T00:40:40.189Z,1001.47
2023-06-01T00:41:40.187Z,1001.47
2023-06-01T00:42:40.161Z,1001.46
2023-06-01T00:43:40.492Z,1001.45
2023-06-01T00:44:40.148Z,1001.44
2023-06-01T00:45:40.139Z,1001.44
2023-06-01T00:46:40.170Z,1001.43
2023-06-01T00:47:40.160Z,1001.42
2023-06-01T00:48:40.536Z,1001.43
2023-06-01T00:49:40.106Z,1001.43
2023-06-01T00:50:40.092Z,1001.44
2023-06-01T00:51:40.090Z,1001.44
2023-06-01T00:52:40.796Z,1001.45
2023-06-01T00:53:40.410Z,1001.46
2023-06-01T00:54:40.058Z,1001.47
2023-06-01T00:55:40.054Z,1001.46
2023-06-01T00:56:40.038Z,1001.46
2023-06-01T00:57:40.337Z,1001.45
2023-06-01T00:58:40.029Z,1001.45
2023-06-01T00:59:40.016Z,1001.44
2023-06-01T01:00:40.002Z,1001.43
2023-06-01T01:01:40.137Z,1001.43
2023-06-01T01:02:40.362Z,1001.42
2023-06-01T01:03:39.981Z,1001.42
2023-06-01T01:04:39.994Z,1001.42
2023-06-01T01:05:39.965Z,1001.42
2023-06-01T01:06:40.285Z,1001.44
2023-06-01T01:07:40.335Z,1001.45
2023-06-01T01:08:39.929Z,1001.47
2023-06-01T01:09:39.931Z,1001.47
2023-06-01T01:10:39.913Z,1001.48
2023-06-01T01:11:40.735Z,1001.48
2023-06-01T01:12:39.916Z,1001.47
2023-06-01T01:13:39.898Z,1001.47
2023-06-01T01:14:39.882Z,1001.45
2023-06-01T01:15:39.880Z,1001.45
2023-06-01T01:16:40.145Z,1001.44
2023-06-01T01:17:40.054Z,1001.43
2023-06-01T01:18:39.844Z,1001.41
2023-06-01T01:19:39.844Z,1001.41
2023-06-01T01:20:40.569Z,1001.41
2023-06-01T01:21:40.270Z,1001.41
2023-06-01T01:22:39.844Z,1001.41
2023-06-01T01:23:39.822Z,1001.42
2023-06-01T01:24:39.797Z,1001.42
2023-06-01T01:25:40.208Z,1001.41
2023-06-01T01:26:39.777Z,1001.41
2023-06-01T01:27:39.775Z,1001.40
2023-06-01T01:28:39.763Z,1001.42
2023-06-01T01:29:40.102Z,1001.43
2023-06-01T01:30:40.603Z,1001.44
2023-06-01T01:31:39.831Z,1001.44
2023-06-01T01:32:39.761Z,1001.43
2023-06-01T01:33:39.726Z,1001.42
2023-06-01T01:34:40.099Z,1001.42
2023-06-01T01:35:39.709Z,1001.41
2023-06-01T01:36:39.704Z,1001.40
2023-06-01T01:37:39.682Z,1001.40
2023-06-01T01:38:39.679Z,1001.38
2023-06-01T01:39:40.034Z,1001.37
2023-06-01T01:40:39.658Z,1001.36
2023-06-01T01:41:39.655Z,1001.34
2023-06-01T01:42:39.639Z,1001.33
2023-06-01T01:43:39.934Z,1001.32
2023-06-01T01:44:40.061Z,1001.31
2023-06-01T01:45:39.625Z,1001.29
2023-06-01T01:46:39.655Z,1001.28
2023-06-01T01:47:39.759Z,1001.26
2023-06-01T01:48:40.069Z,1001.25
2023-06-01T01:49:39.594Z,1001.25
2023-06-01T01:50:39.573Z,1001.25
2023-06-01T01:51:39.569Z,1001.24
2023-06-01T01:52:39.550Z,1001.24
2023-06-01T01:53:39.936Z,1001.23
2023-06-01T01:54:39.539Z,1001.23
2023-06-01T01:55:39.531Z,1001.23
2023-06-01T01:56:39.517Z,1001.24
2023-06-01T01:57:39.904Z,1001.23
2023-06-01T01:58:39.865Z,1001.22
2023-06-01T01:59:39.502Z,1001.21
2023-06-01T02:00:39.484Z,1001.19
2023-06-01T02:01:39.526Z,1001.17
2023-06-01T02:02:39.812Z,1001.18
2023-06-01T02:03:39.555Z,1001.17
2023-06-01T02:04:39.446Z,1001.18
2023-06-01T02:05:39.442Z,1001.17
2023-06-01T02:06:39.441Z,1001.15
2023-06-01T02:07:40.092Z,1001.12
2023-06-01T02:08:39.426Z,1001.10
2023-06-01T02:09:39.405Z,1001.08
2023-06-01T02:10:39.395Z,1001.08
2023-06-01T02:11:40.320Z,1001.08
2023-06-01T02:12:39.712Z,1001.07
2023-06-01T02:13:39.365Z,1001.08
2023-06-01T02:14:39.358Z,1001.09
2023-06-01T02:15:39.355Z,1001.08
2023-06-01T02:16:39.746Z,1001.09
2023-06-01T02:17:39.338Z,1001.09
2023-06-01T02:18:39.319Z,1001.09
2023-06-01T02:19:39.305Z,1001.08
2023-06-01T02:20:39.303Z,1001.08
2023-06-01T02:21:40.093Z,1001.08
2023-06-01T02:22:39.280Z,1001.07
2023-06-01T02:23:39.269Z,1001.06
2023-06-01T02:24:39.267Z,1001.04
2023-06-01T02:25:39.697Z,1001.04
2023-06-01T02:26:39.594Z,1001.03
2023-06-01T02:27:39.252Z,1001.01
2023-06-01T02:28:39.178Z,1001.03
2023-06-01T02:29:39.216Z,1001.02
2023-06-01T02:30:40.111Z,1001.02
2023-06-01T02:31:39.177Z,1001.02
2023-06-01T02:32:39.165Z,1001.03
2023-06-01T02:33:39.129Z,1001.03
2023-06-01T02:34:39.130Z,1001.05
2023-06-01T02:35:39.822Z,1001.05
2023-06-01T02:36:39.113Z,1001.05
2023-06-01T02:37:39.102Z,1001.05
2023-06-01T02:38:39.097Z,1001.07
2023-06-01T02:39:39.352Z,1001.07
2023-06-01T02:40:39.893Z,1001.07
2023-06-01T02:41:39.070Z,1001.07
2023-06-01T02:42:39.049Z,1001.08
2023-06-01T02:43:39.046Z,1001.07
2023-06-01T02:44:39.380Z,1001.07
2023-06-01T02:45:39.042Z,1001.06
2023-06-01T02:46:39.035Z,1001.04
2023-06-01T02:47:39.010Z,1001.03
2023-06-01T02:48:38.999Z,1001.02
2023-06-01T02:49:39.519Z,1001.03
2023-06-01T02:50:38.982Z,1001.05
2023-06-01T02:51:38.968Z,1001.06
2023-06-01T02:52:38.965Z,1001.07
2023-06-01T02:53:39.725Z,1001.07
2023-06-01T02:54:39.348Z,1001.07
2023-06-01T02:55:38.931Z,1001.05
2023-06-01T02:56:38.924Z,1001.04
2023-06-01T02:57:38.911Z,1001.02
2023-06-01T02:58:39.239Z,1001.01
2023-06-01T02:59:38.890Z,1001.01
2023-06-01T03:00:38.889Z,1001.00
2023-06-01T03:01:38.914Z,1001.01
2023-06-01T03:02:38.887Z,1001.02
2023-06-01T03:03:39.232Z,1001.02
2023-06-01T03:04:38.855Z,1001.01
2023-06-01T03:05:38.837Z,1001.01
2023-06-01T03:06:39.140Z,1001.01
2023-06-01T03:07:39.144Z,1001.00
2023-06-01T03:08:39.185Z,1001.01
2023-06-01T03:09:38.801Z,1001.02
2023-06-01T03:10:38.820Z,1001.01
2023-06-01T03:11:38.782Z,1001.01
2023-06-01T03:12:39.117Z,1001.01
2023-06-01T03:13:38.768Z,1001.01
2023-06-01T03:14:38.764Z,1001.01
2023-06-01T03:15:38.791Z,1001.02
2023-06-01T03:16:38.759Z,1001.03
2023-06-01T03:17:39.114Z,1001.05
2023-06-01T03:18:39.368Z,1001.07
2023-06-01T03:19:38.722Z,1001.08
2023-06-01T03:20:38.721Z,1001.10
2023-06-01T03:21:38.893Z,1001.10
2023-06-01T03:22:39.028Z,1001.11
2023-06-01T03:23:38.738Z,1001.11
2023-06-01T03:24:38.714Z,1001.10
2023-06-01T03:25:38.662Z,1001.09
2023-06-01T03:26:39.148Z,1001.09
2023-06-01T03:27:38.654Z,1001.09
2023-06-01T03:28:38.639Z,1001.09
2023-06-01T03:29:38.619Z,1001.10
2023-06-01T03:30:38.614Z,1001.10
2023-06-01T03:31:38.992Z,1001.11
2023-06-01T03:32:38.657Z,1001.12
2023-06-01T03:33:38.583Z,1001.14
2023-06-01T03:34:38.578Z,1001.15
2023-06-01T03:35:38.839Z,1001.15
2023-06-01T03:36:38.872Z,1001.18
2023-06-01T03:37:38.542Z,1001.19
2023-06-01T03:38:38.543Z,1001.21
2023-06-01T03:39:38.522Z,1001.23
2023-06-01T03:40:38.998Z,1001.22
2023-06-01T03:41:38.513Z,1001.22
2023-06-01T03:42:38.501Z,1001.23
2023-06-01T03:43:38.497Z,1001.23
2023-06-01T03:44:38.483Z,1001.24
2023-06-01T03:45:38.971Z,1001.23
2023-06-01T03:46:38.494Z,1001.23
2023-06-01T03:47:38.528Z,1001.23
2023-06-01T03:48:38.458Z,1001.22
2023-06-01T03:49:38.957Z,1001.21
2023-06-01T03:50:38.798Z,1001.20
2023-06-01T03:51:38.436Z,1001.20
2023-06-01T03:52:38.449Z,1001.19
2023-06-01T03:53:38.400Z,1001.20
2023-06-01T03:54:38.750Z,1001.21
2023-06-01T03:55:38.380Z,1001.20
2023-06-01T03:56:38.379Z,1001.20
2023-06-01T03:57:38.366Z,1001.18
2023-06-01T03:58:38.357Z,1001.17
2023-06-01T03:59:38.355Z,1001.17
2023-06-01T04:00:38.345Z,1001.15
2023-06-01T04:01:40.240Z,1001.16
2023-06-01T04:02:38.407Z,1001.16
2023-06-01T04:03:38.838Z,1001.16
2023-06-01T04:04:38.818Z,1001.17
2023-06-01T04:05:38.305Z,1001.18
2023-06-01T04:06:38.300Z,1001.18
2023-06-01T04:07:38.276Z,1001.17
2023-06-01T04:08:38.298Z,1001.17
2023-06-01T04:09:38.251Z,1001.16
2023-06-01T04:10:38.252Z,1001.15
2023-06-01T04:11:38.241Z,1001.15
2023-06-01T04:12:38.234Z,1001.14
2023-06-01T04:13:38.563Z,1001.14
2023-06-01T04:14:38.216Z,1001.14
2023-06-01T04:15:38.198Z,1001.14
2023-06-01T04:16:38.222Z,1001.13
2023-06-01T04:17:38.258Z,1001.12
2023-06-01T04:18:38.191Z,1001.13
2023-06-01T04:19:38.162Z,1001.12
2023-06-01T04:20:38.161Z,1001.12
2023-06-01T04:21:38.211Z,1001.11
2023-06-01T04:22:38.162Z,1001.10
2023-06-01T04:23:38.136Z,1001.10
2023-06-01T04:24:38.129Z,1001.09
2023-06-01T04:25:38.113Z,1001.09
2023-06-01T04:26:38.107Z,1001.09
2023-06-01T04:27:38.112Z,1001.09
2023-06-01T04:28:38.092Z,1001.09
2023-06-01T04:29:38.113Z,1001.09
2023-06-01T04:30:38.068Z,1001.11
2023-06-01T04:31:38.432Z,1001.11
2023-06-01T04:32:38.400Z,1001.13
2023-06-01T04:33:38.039Z,1001.14
2023-06-01T04:34:38.032Z,1001.14
2023-06-01T04:35:38.031Z,1001.15
2023-06-01T04:36:38.062Z,1001.16
2023-06-01T04:37:37.994Z,1001.19
2023-06-01T04:38:37.993Z,1001.16
2023-06-01T04:39:37.974Z,1001.16
2023-06-01T04:40:37.993Z,1001.14
2023-06-01T04:41:38.312Z,1001.14
2023-06-01T04:42:37.959Z,1001.15
2023-06-01T04:43:37.950Z,1001.15
2023-06-01T04:44:37.944Z,1001.15
2023-06-01T04:45:37.958Z,1001.15
2023-06-01T04:46:38.183Z,1001.18
2023-06-01T04:47:37.932Z,1001.18
2023-06-01T04:48:37.901Z,1001.22
2023-06-01T04:49:37.893Z,1001.20
2023-06-01T04:50:38.631Z,1001.17
2023-06-01T04:51:37.942Z,1001.16
2023-06-01T04:52:38.411Z,1001.17
2023-06-01T04:53:37.852Z,1001.15
2023-06-01T04:54:37.869Z,1001.14
2023-06-01T04:55:37.871Z,1001.13
2023-06-01T04:56:37.846Z,1001.13
2023-06-01T04:57:37.839Z,1001.14
2023-06-01T04:58:37.817Z,1001.14
2023-06-01T04:59:38.150Z,1001.13
2023-06-01T05:00:37.804Z,1001.16
2023-06-01T05:01:37.815Z,1001.18
2023-06-01T05:02:37.805Z,1001.19
2023-06-01T05:03:37.801Z,1001.20
2023-06-01T05:04:38.103Z,1001.23
2023-06-01T05:05:39.319Z,1001.24
2023-06-01T05:06:37.755Z,1001.22
2023-06-01T05:07:37.730Z,1001.23
2023-06-01T05:08:37.790Z,1001.24
2023-06-01T05:09:38.035Z,1001.23
2023-06-01T05:10:37.719Z,1001.25
2023-06-01T05:11:37.700Z,1001.24
2023-06-01T05:12:37.700Z,1001.22
2023-06-01T05:13:37.829Z,1001.21
2023-06-01T05:14:37.685Z,1001.21
2023-06-01T05:15:37.663Z,1001.26
2023-06-01T05:16:37.790Z,1001.21
2023-06-01T05:17:37.663Z,1001.22
2023-06-01T05:18:37.673Z,1001.24
2023-06-01T05:19:37.632Z,1001.24
2023-06-01T05:20:37.630Z,1001.22
2023-06-01T05:21:37.668Z,1001.21
2023-06-01T05:22:37.941Z,1001.21
2023-06-01T05:23:38.098Z,1001.25
2023-06-01T05:24:37.599Z,1001.22
2023-06-01T05:25:37.581Z,1001.22
2023-06-01T05:26:37.591Z,1001.22
2023-06-01T05:27:37.580Z,1001.26
2023-06-01T05:28:37.578Z,1001.27
2023-06-01T05:29:37.541Z,1001.25
2023-06-01T05:30:37.549Z,1001.27
2023-06-01T05:31:37.592Z,1001.27
2023-06-01T05:32:37.924Z,1001.25
2023-06-01T05:33:37.513Z,1001.30
2023-06-01T05:34:37.510Z,1001.25
2023-06-01T05:35:37.497Z,1001.26
2023-06-01T05:36:37.676Z,1001.30
2023-06-01T05:37:37.494Z,1001.28
2023-06-01T05:38:37.469Z,1001.31
2023-06-01T05:39:37.452Z,1001.26
2023-06-01T05:40:37.455Z,1001.28
2023-06-01T05:41:38.117Z,1001.26
2023-06-01T05:42:37.428Z,1001.29
2023-06-01T05:43:37.415Z,1001.30
2023-06-01T05:44:37.415Z,1001.29
2023-06-01T05:45:37.451Z,1001.30
2023-06-01T05:46:37.430Z,1001.32
2023-06-01T05:47:37.436Z,1001.31
2023-06-01T05:48:39.274Z,1001.34
2023-06-01T05:49:37.370Z,1001.34
2023-06-01T05:50:37.373Z,1001.33
2023-06-01T05:51:38.066Z,1001.36
2023-06-01T05:52:37.338Z,1001.35
2023-06-01T05:53:37.325Z,1001.37
2023-06-01T05:54:37.320Z,1001.38
2023-06-01T05:55:37.850Z,1001.39
2023-06-01T05:56:37.299Z,1001.42
2023-06-01T05:57:37.285Z,1001.42
2023-06-01T05:58:37.285Z,1001.42
2023-06-01T05:59:37.268Z,1001.43
2023-06-01T06:00:37.613Z,1001.42
2023-06-01T06:01:37.464Z,1001.43
2023-06-01T06:02:37.306Z,1001.42
2023-06-01T06:03:37.313Z,1001.40
2023-06-01T06:04:38.100Z,1001.40
2023-06-01T06:05:37.225Z,1001.39
2023-06-01T06:06:37.251Z,1001.41
2023-06-01T06:07:37.543Z,1001.41
2023-06-01T06:08:37.209Z,1001.41
2023-06-01T06:09:37.498Z,1001.40
2023-06-01T06:10:37.194Z,1001.40
2023-06-01T06:11:37.166Z,1001.41
2023-06-01T06:12:37.169Z,1001.42
2023-06-01T06:13:37.859Z,1001.42
2023-06-01T06:14:37.649Z,1001.44
2023-06-01T06:15:37.147Z,1001.45
2023-06-01T06:16:37.138Z,1001.49
2023-06-01T06:17:37.189Z,1001.47
2023-06-01T06:18:37.457Z,1001.50
2023-06-01T06:19:37.104Z,1001.51
2023-06-01T06:20:37.103Z,1001.51
2023-06-01T06:21:37.188Z,1001.51
2023-06-01T06:22:37.086Z,1001.50
2023-06-01T06:23:37.912Z,1001.49
2023-06-01T06:24:37.070Z,1001.50
2023-06-01T06:25:37.077Z,1001.50
2023-06-01T06:26:37.054Z,1001.51
2023-06-01T06:27:37.500Z,1001.50
2023-06-01T06:28:37.426Z,1001.51
2023-06-01T06:29:37.033Z,1001.51
2023-06-01T06:30:37.014Z,1001.50
2023-06-01T06:31:37.054Z,1001.52
2023-06-01T06:32:37.816Z,1001.53
2023-06-01T06:33:36.988Z,1001.56
2023-06-01T06:34:36.977Z,1001.53
2023-06-01T06:35:36.974Z,1001.56
2023-06-01T06:36:36.964Z,1001.56
2023-06-01T06:37:37.251Z,1001.57
2023-06-01T06:38:36.943Z,1001.58
2023-06-01T06:39:36.942Z,1001.62
2023-06-01T06:40:36.924Z,1001.63
2023-06-01T06:41:37.288Z,1001.64
2023-06-01T06:42:37.598Z,1001.65
2023-06-01T06:43:36.902Z,1001.67
2023-06-01T06:44:36.900Z,1001.66
2023-06-01T06:45:36.887Z,1001.65
2023-06-01T06:46:37.245Z,1001.66
2023-06-01T06:47:36.896Z,1001.66
2023-06-01T06:48:36.851Z,1001.68
2023-06-01T06:49:36.874Z,1001.66
2023-06-01T06:50:36.841Z,1001.67
2023-06-01T06:51:37.624Z,1001.67
2023-06-01T06:52:36.836Z,1001.70
2023-06-01T06:53:36.820Z,1001.66
2023-06-01T06:54:36.813Z,1001.69
2023-06-01T06:55:37.149Z,1001.70
2023-06-01T06:56:37.163Z,1001.72
2023-06-01T06:57:36.779Z,1001.73
2023-06-01T06:58:36.776Z,1001.74
2023-06-01T06:59:36.790Z,1001.70
2023-06-01T07:00:37.139Z,1001.76
2023-06-01T07:01:38.688Z,1001.74
2023-06-01T07:02:36.801Z,1001.74
2023-06-01T07:03:36.800Z,1001.75
2023-06-01T07:04:36.723Z,1001.73
2023-06-01T07:05:37.461Z,1001.74
2023-06-01T07:06:36.705Z,1001.73
2023-06-01T07:07:36.707Z,1001.71
2023-06-01T07:08:36.683Z,1001.71
2023-06-01T07:09:37.151Z,1001.72
2023-06-01T07:10:37.029Z,1001.71
2023-06-01T07:11:36.662Z,1001.70
2023-06-01T07:12:36.659Z,1001.70
2023-06-01T07:13:36.650Z,1001.69
2023-06-01T07:14:36.999Z,1001.70
2023-06-01T07:15:36.632Z,1001.73
2023-06-01T07:16:36.674Z,1001.71
2023-06-01T07:17:36.642Z,1001.70
2023-06-01T07:18:36.600Z,1001.71
2023-06-01T07:19:36.875Z,1001.69
2023-06-01T07:20:36.577Z,1001.70
2023-06-01T07:21:36.595Z,1001.68
2023-06-01T07:22:36.568Z,1001.72
2023-06-01T07:23:36.596Z,1001.70
2023-06-01T07:24:36.893Z,1001.71
2023-06-01T07:25:36.555Z,1001.70
2023-06-01T07:26:36.527Z,1001.70
2023-06-01T07:27:36.529Z,1001.70
2023-06-01T07:28:36.854Z,1001.72
2023-06-01T07:29:36.526Z,1001.69
2023-06-01T07:30:36.520Z,1001.69
2023-06-01T07:31:36.695Z,1001.71
2023-06-01T07:32:36.673Z,1001.70
2023-06-01T07:33:37.352Z,1001.70
2023-06-01T07:34:36.464Z,1001.72
2023-06-01T07:35:36.467Z,1001.70
2023-06-01T07:36:36.448Z,1001.72
2023-06-01T07:37:36.733Z,1001.70
2023-06-01T07:38:36.438Z,1001.71
2023-06-01T07:39:36.439Z,1001.73
2023-06-01T07:40:36.406Z,1001.70
2023-06-01T07:41:36.398Z,1001.73
2023-06-01T07:42:37.148Z,1001.70
2023-06-01T07:43:36.381Z,1001.71
2023-06-01T07:44:36.363Z,1001.71
2023-06-01T07:45:36.370Z,1001.71
2023-06-01T07:46:36.367Z,1001.70
2023-06-01T07:47:36.411Z,1001.72
2023-06-01T07:48:36.328Z,1001.71
2023-06-01T07:49:36.334Z,1001.71
2023-06-01T07:50:36.307Z,1001.70
2023-06-01T07:51:37.096Z,1001.70
2023-06-01T07:52:37.004Z,1001.68
2023-06-01T07:53:36.299Z,1001.67
2023-06-01T07:54:36.306Z,1001.69
2023-06-01T07:55:36.262Z,1001.68
2023-06-01T07:56:36.302Z,1001.68
2023-06-01T07:57:36.244Z,1001.70
2023-06-01T07:58:36.238Z,1001.70
2023-06-01T07:59:36.229Z,1001.71
2023-06-01T08:00:36.211Z,1001.70
2023-06-01T08:01:36.653Z,1001.74
2023-06-01T08:02:36.278Z,1001.70
2023-06-01T08:03:36.272Z,1001.70
2023-06-01T08:04:36.163Z,1001.68
2023-06-01T08:05:38.686Z,1001.68
2023-06-01T08:06:36.168Z,1001.64
2023-06-01T08:07:36.132Z,1001.59
2023-06-01T08:08:36.122Z,1001.64
2023-06-01T08:09:36.124Z,1001.61
2023-06-01T08:10:36.517Z,1001.57
2023-06-01T08:11:36.093Z,1001.55
2023-06-01T08:12:36.091Z,1001.53
2023-06-01T08:13:36.071Z,1001.56
2023-06-01T08:14:36.049Z,1001.54
2023-06-01T08:15:36.410Z,1001.57
2023-06-01T08:16:36.060Z,1001.56
2023-06-01T08:17:36.169Z,1001.57
2023-06-01T08:18:36.015Z,1001.56
2023-06-01T08:19:36.396Z,1001.58
2023-06-01T08:20:36.899Z,1001.58
2023-06-01T08:21:36.012Z,1001.57
2023-06-01T08:22:35.981Z,1001.55
2023-06-01T08:23:35.973Z,1001.54
2023-06-01T08:24:36.358Z,1001.49
2023-06-01T08:25:35.953Z,1001.47
2023-06-01T08:26:35.936Z,1001.50
2023-06-01T08:27:35.930Z,1001.45
2023-06-01T08:28:35.921Z,1001.49
2023-06-01T08:30:35.912Z,1001.51
2023-06-01T08:31:35.938Z,1001.50
2023-06-01T08:32:35.906Z,1001.52
2023-06-01T08:33:36.204Z,1001.50
2023-06-01T08:34:36.197Z,1001.52
2023-06-01T08:35:35.843Z,1001.48
2023-06-01T08:36:35.812Z,1001.46
2023-06-01T08:37:35.804Z,1001.48
2023-06-01T08:38:35.816Z,1001.46
2023-06-01T08:39:35.790Z,1001.43
2023-06-01T08:40:35.762Z,1001.41
2023-06-01T08:41:35.758Z,1001.41
2023-06-01T08:42:35.742Z,1001.41
2023-06-01T08:43:36.419Z,1001.40
2023-06-01T08:44:35.719Z,1001.40
2023-06-01T08:45:35.726Z,1001.41
2023-06-01T08:46:35.758Z,1001.41
2023-06-01T08:47:36.084Z,1001.40
2023-06-01T08:48:36.021Z,1001.41
2023-06-01T08:49:35.685Z,1001.39
2023-06-01T08:50:35.650Z,1001.39
2023-06-01T08:51:35.649Z,1001.36
2023-06-01T08:52:36.533Z,1001.32
2023-06-01T08:53:35.630Z,1001.36
2023-06-01T08:54:35.611Z,1001.33
2023-06-01T08:55:35.598Z,1001.33
2023-06-01T08:56:35.583Z,1001.32
2023-06-01T08:57:35.800Z,1001.33
2023-06-01T08:58:35.563Z,1001.32
2023-06-01T08:59:35.551Z,1001.33
2023-06-01T09:00:35.540Z,1001.31
2023-06-01T09:01:35.596Z,1001.33
2023-06-01T09:02:36.289Z,1001.29
2023-06-01T09:03:35.533Z,1001.28
2023-06-01T09:04:35.496Z,1001.28
2023-06-01T09:05:35.484Z,1001.28
2023-06-01T09:06:35.783Z,1001.27
2023-06-01T09:07:35.781Z,1001.28
2023-06-01T09:08:35.511Z,1001.26
2023-06-01T09:09:35.557Z,1001.26
2023-06-01T09:10:35.426Z,1001.25
2023-06-01T09:11:35.792Z,1001.21
2023-06-01T09:12:35.404Z,1001.20
2023-06-01T09:13:35.427Z,1001.19
2023-06-01T09:14:35.381Z,1001.16
2023-06-01T09:15:35.378Z,1001.15
2023-06-01T09:16:35.727Z,1001.10
2023-06-01T09:17:35.409Z,1001.10
2023-06-01T09:18:35.342Z,1001.13
2023-06-01T09:19:35.335Z,1001.07
2023-06-01T09:20:36.185Z,1001.07
2023-06-01T09:21:35.354Z,1001.11
2023-06-01T09:22:35.301Z,1001.09
2023-06-01T09:23:35.296Z,1001.07
2023-06-01T09:24:35.610Z,1001.04
2023-06-01T09:25:35.690Z,1001.07
2023-06-01T09:26:35.253Z,1001.04
2023-06-01T09:27:35.246Z,1001.02
2023-06-01T09:28:35.233Z,1001.04
2023-06-01T09:29:35.238Z,1001.06
2023-06-01T09:30:35.689Z,1001.03
2023-06-01T09:31:35.254Z,1001.05
2023-06-01T09:32:35.201Z,1001.00
2023-06-01T09:33:35.178Z,1000.99
2023-06-01T09:34:35.851Z,1001.02
2023-06-01T09:35:35.867Z,1000.97
2023-06-01T09:36:35.157Z,1000.98
2023-06-01T09:37:35.135Z,1000.93
2023-06-01T09:38:35.131Z,1000.89
2023-06-01T09:39:35.440Z,1000.87
2023-06-01T09:40:35.099Z,1000.89
2023-06-01T09:41:35.096Z,1000.86
2023-06-01T09:42:35.074Z,1000.89
2023-06-01T09:43:35.076Z,1000.90
2023-06-01T09:44:35.552Z,1000.86
2023-06-01T09:45:35.063Z,1000.87
2023-06-01T09:46:35.048Z,1000.91
2023-06-01T09:47:35.149Z,1000.85
2023-06-01T09:48:35.383Z,1000.85
2023-06-01T09:49:35.366Z,1000.80
2023-06-01T09:50:34.999Z,1000.82
2023-06-01T09:51:34.990Z,1000.78
2023-06-01T09:52:34.964Z,1000.83
2023-06-01T09:53:35.666Z,1000.81
2023-06-01T09:54:34.955Z,1000.74
2023-06-01T09:55:34.948Z,1000.80
2023-06-01T09:56:34.923Z,1000.74
2023-06-01T09:57:34.913Z,1000.71
2023-06-01T09:58:34.919Z,1000.70
2023-06-01T09:59:34.904Z,1000.69
2023-06-01T10:00:34.886Z,1000.68
2023-06-01T10:01:34.999Z,1000.70
2023-06-01T10:02:35.702Z,1000.66
2023-06-01T10:03:35.457Z,1000.63
2023-06-01T10:04:34.854Z,1000.61
2023-06-01T10:05:34.834Z,1000.61
2023-06-01T10:06:34.823Z,1000.58
2023-06-01T10:07:35.157Z,1000.61
2023-06-01T10:08:34.812Z,1000.59
2023-06-01T10:09:34.798Z,1000.59
2023-06-01T10:10:34.779Z,1000.58
2023-06-01T10:11:34.777Z,1000.62
2023-06-01T10:12:35.200Z,1000.58
2023-06-01T10:13:34.754Z,1000.59
2023-06-01T10:14:34.747Z,1000.56
2023-06-01T10:15:34.743Z,1000.52
2023-06-01T10:16:35.064Z,1000.51
2023-06-01T10:17:35.735Z,1000.53
2023-06-01T10:18:34.699Z,1000.56
2023-06-01T10:19:34.692Z,1000.55
2023-06-01T10:20:34.679Z,1000.51
2023-06-01T10:21:35.501Z,1000.51
2023-06-01T10:22:34.661Z,1000.50
2023-06-01T10:23:34.654Z,1000.50
2023-06-01T10:24:34.636Z,1000.52
2023-06-01T10:25:34.982Z,1000.48
2023-06-01T10:26:35.174Z,1000.50
2023-06-01T10:27:34.637Z,1000.51
2023-06-01T10:28:34.624Z,1000.50
2023-06-01T10:29:34.588Z,1000.49
2023-06-01T10:30:34.925Z,1000.49
2023-06-01T10:31:34.954Z,1000.44
2023-06-01T10:32:34.589Z,1000.45
2023-06-01T10:33:34.566Z,1000.42
2023-06-01T10:34:34.575Z,1000.42
2023-06-01T10:35:35.257Z,1000.45
2023-06-01T10:36:34.516Z,1000.42
2023-06-01T10:37:34.511Z,1000.42
2023-06-01T10:38:34.497Z,1000.37
2023-06-01T10:39:36.085Z,1000.46
2023-06-01T10:40:34.792Z,1000.41
2023-06-01T10:41:34.505Z,1000.40
2023-06-01T10:42:34.455Z,1000.41
2023-06-01T10:43:34.448Z,1000.41
2023-06-01T10:44:35.206Z,1000.34
2023-06-01T10:45:34.435Z,1000.34
2023-06-01T10:46:34.470Z,1000.38
2023-06-01T10:47:34.402Z,1000.34
2023-06-01T10:48:34.396Z,1000.33
2023-06-01T10:49:34.898Z,1000.34
2023-06-01T10:50:34.379Z,1000.34
2023-06-01T10:51:34.352Z,1000.32
2023-06-01T10:52:34.434Z,1000.28
2023-06-01T10:53:34.359Z,1000.27
2023-06-01T10:54:34.738Z,1000.28
2023-06-01T10:55:34.308Z,1000.27
2023-06-01T10:56:34.321Z,1000.26
2023-06-01T10:57:34.308Z,1000.23
2023-06-01T10:58:34.317Z,1000.23
2023-06-01T10:59:34.277Z,1000.25
2023-06-01T11:00:34.295Z,1000.25
2023-06-01T11:01:34.306Z,1000.29
2023-06-01T11:02:34.292Z,1000.27
2023-06-01T11:03:34.379Z,1000.29
2023-06-01T11:04:34.331Z,1000.24
2023-06-01T11:05:34.226Z,1000.29
2023-06-01T11:06:34.209Z,1000.25
2023-06-01T11:07:34.487Z,1000.28
2023-06-01T11:08:34.554Z,1000.21
2023-06-01T11:09:34.175Z,1000.22
2023-06-01T11:10:34.166Z,1000.18
2023-06-01T11:11:34.157Z,1000.19
2023-06-01T11:12:34.466Z,1000.21
2023-06-01T11:13:34.135Z,1000.19
2023-06-01T11:14:34.151Z,1000.17
2023-06-01T11:15:34.128Z,1000.16
2023-06-01T11:16:34.230Z,1000.16
2023-06-01T11:17:34.630Z,1000.19
2023-06-01T11:18:34.084Z,1000.15
2023-06-01T11:19:34.064Z,1000.18
2023-06-01T11:20:34.076Z,1000.11
2023-06-01T11:21:34.891Z,1000.13
2023-06-01T11:22:34.358Z,1000.10
2023-06-01T11:23:34.026Z,1000.17
2023-06-01T11:24:34.031Z,1000.12
2023-06-01T11:25:34.016Z,1000.11
2023-06-01T11:26:34.034Z,1000.11
2023-06-01T11:27:33.994Z,1000.08
2023-06-01T11:28:33.991Z,1000.10
2023-06-01T11:29:33.972Z,1000.09
2023-06-01T11:30:33.957Z,1000.04
2023-06-01T11:31:34.335Z,1000.02
2023-06-01T11:32:34.030Z,1000.08
2023-06-01T11:33:34.757Z,1000.00
2023-06-01T11:34:33.917Z,1000.02
2023-06-01T11:35:34.418Z,1000.00
2023-06-01T11:36:33.911Z,999.99
2023-06-01T11:37:33.883Z,999.97
2023-06-01T11:38:33.877Z,999.99
2023-06-01T11:39:33.886Z,999.96
2023-06-01T11:40:38.296Z,1000.00
2023-06-01T11:41:33.846Z,999.96
2023-06-01T11:42:33.834Z,999.98
2023-06-01T11:43:33.825Z,999.94
2023-06-01T11:44:33.819Z,999.94
2023-06-01T11:45:34.120Z,999.95
2023-06-01T11:46:33.838Z,999.87
2023-06-01T11:47:33.816Z,999.93
2023-06-01T11:48:33.767Z,999.95
2023-06-01T11:49:33.763Z,999.96
2023-06-01T11:50:34.063Z,999.92
2023-06-01T11:51:33.741Z,999.93
2023-06-01T11:52:33.723Z,999.91
2023-06-01T11:53:33.710Z,999.91
2023-06-01T11:54:34.046Z,999.86
2023-06-01T11:55:33.691Z,999.85
2023-06-01T11:56:33.690Z,999.89
2023-06-01T11:57:33.686Z,999.87
2023-06-01T11:58:33.681Z,999.85
2023-06-01T11:59:33.990Z,999.90
2023-06-01T12:00:33.647Z,999.89
2023-06-01T12:01:33.631Z,999.86
2023-06-01T12:02:33.659Z,999.84
2023-06-01T12:03:34.049Z,999.90
2023-06-01T12:04:34.016Z,999.89
2023-06-01T12:05:33.588Z,999.88
2023-06-01T12:06:33.590Z,999.91
2023-06-01T12:07:33.576Z,999.89